sensor_id;sensor_type;location;lat;lon;timestamp;temperature;humidity
7502;DHT22;3792;47.740;7.606;2022-12-10T00:01:42;1.80;99.90
7502;DHT22;3792;47.740;7.606;2022-12-10T00:04:10;1.80;99.90
7502;DHT22;3792;47.740;7.606;2022-12-10T00:06:38;1.80;99.90
7502;DHT22;3792;47.740;7.606;2022-12-10T00:09:07;1.80;99.90
7502;DHT22;3792;47.740;7.606;2022-12-10T00:11:37;1.80;99.90
7502;DHT22;3792;47.740;7.606;2022-12-10T00:14:05;1.80;99.90
7502;DHT22;3792;47.740;7.606;2022-12-10T00:16:33;1.70;99.90
7502;DHT22;3792;47.740;7.606;2022-12-10T00:19:02;1.70;99.90
7502;DHT22;3792;47.740;7.606;2022-12-10T00:21:32;1.80;99.90
7502;DHT22;3792;47.740;7.606;2022-12-10T00:24:00;1.80;99.90
7502;DHT22;3792;47.740;7.606;2022-12-10T00:26:29;1.70;99.90
7502;DHT22;3792;47.740;7.606;2022-12-10T00:28:59;1.70;99.90
7502;DHT22;3792;47.740;7.606;2022-12-10T00:31:27;1.70;99.90
7502;DHT22;3792;47.740;7.606;2022-12-10T00:33:56;1.70;99.90
7502;DHT22;3792;47.740;7.606;2022-12-10T00:36:29;1.70;99.90
7502;DHT22;3792;47.740;7.606;2022-12-10T00:38:57;1.80;99.90
7502;DHT22;3792;47.740;7.606;2022-12-10T00:41:24;1.80;99.90
7502;DHT22;3792;47.740;7.606;2022-12-10T00:43:52;1.70;99.90
7502;DHT22;3792;47.740;7.606;2022-12-10T00:46:19;1.70;99.90
7502;DHT22;3792;47.740;7.606;2022-12-10T00:48:46;1.70;99.90
7502;DHT22;3792;47.740;7.606;2022-12-10T00:51:14;1.70;99.90
7502;DHT22;3792;47.740;7.606;2022-12-10T00:53:45;1.70;99.90
7502;DHT22;3792;47.740;7.606;2022-12-10T00:56:14;1.70;99.90
7502;DHT22;3792;47.740;7.606;2022-12-10T00:58:41;1.70;99.90
7502;DHT22;3792;47.740;7.606;2022-12-10T01:01:10;1.80;99.90
7502;DHT22;3792;47.740;7.606;2022-12-10T01:03:38;1.70;99.90
7502;DHT22;3792;47.740;7.606;2022-12-10T01:06:10;1.70;99.90
7502;DHT22;3792;47.740;7.606;2022-12-10T01:08:38;1.70;99.90
7502;DHT22;3792;47.740;7.606;2022-12-10T01:11:08;1.70;99.90
7502;DHT22;3792;47.740;7.606;2022-12-10T01:13:35;1.70;99.90
7502;DHT22;3792;47.740;7.606;2022-12-10T01:16:05;1.70;99.90
7502;DHT22;3792;47.740;7.606;2022-12-10T01:18:32;1.70;99.90
7502;DHT22;3792;47.740;7.606;2022-12-10T01:21:01;1.70;99.90
7502;DHT22;3792;47.740;7.606;2022-12-10T01:23:31;1.70;99.90
7502;DHT22;3792;47.740;7.606;2022-12-10T01:26:00;1.80;99.90
7502;DHT22;3792;47.740;7.606;2022-12-10T01:28:30;1.80;99.90
7502;DHT22;3792;47.740;7.606;2022-12-10T01:31:00;1.90;99.90
7502;DHT22;3792;47.740;7.606;2022-12-10T01:33:28;1.90;99.90
7502;DHT22;3792;47.740;7.606;2022-12-10T01:35:56;2.00;99.90
7502;DHT22;3792;47.740;7.606;2022-12-10T01:38:23;2.00;99.90
7502;DHT22;3792;47.740;7.606;2022-12-10T01:40:50;2.00;99.90
7502;DHT22;3792;47.740;7.606;2022-12-10T01:43:17;1.90;99.90
7502;DHT22;3792;47.740;7.606;2022-12-10T01:45:46;1.90;99.90
7502;DHT22;3792;47.740;7.606;2022-12-10T01:48:13;2.00;99.90
7502;DHT22;3792;47.740;7.606;2022-12-10T01:50:40;2.00;99.90
7502;DHT22;3792;47.740;7.606;2022-12-10T01:53:07;2.00;99.90
7502;DHT22;3792;47.740;7.606;2022-12-10T01:55:42;1.90;99.90
7502;DHT22;3792;47.740;7.606;2022-12-10T01:58:10;1.90;99.90
7502;DHT22;3792;47.740;7.606;2022-12-10T02:00:44;2.00;99.90
7502;DHT22;3792;47.740;7.606;2022-12-10T02:03:20;2.00;99.90
7502;DHT22;3792;47.740;7.606;2022-12-10T02:05:52;2.00;99.90
7502;DHT22;3792;47.740;7.606;2022-12-10T02:08:26;2.00;99.90
7502;DHT22;3792;47.740;7.606;2022-12-10T02:11:01;2.00;99.90
7502;DHT22;3792;47.740;7.606;2022-12-10T02:13:33;2.00;99.90
7502;DHT22;3792;47.740;7.606;2022-12-10T02:16:06;2.00;99.90
7502;DHT22;3792;47.740;7.606;2022-12-10T02:18:39;2.00;99.90
7502;DHT22;3792;47.740;7.606;2022-12-10T02:21:12;1.90;99.90
7502;DHT22;3792;47.740;7.606;2022-12-10T02:23:44;1.90;99.90
7502;DHT22;3792;47.740;7.606;2022-12-10T02:26:19;1.90;99.90
7502;DHT22;3792;47.740;7.606;2022-12-10T02:28:52;1.80;99.90
7502;DHT22;3792;47.740;7.606;2022-12-10T02:31:26;1.80;99.90
7502;DHT22;3792;47.740;7.606;2022-12-10T02:33:58;1.80;99.90
7502;DHT22;3792;47.740;7.606;2022-12-10T02:36:29;1.90;99.90
7502;DHT22;3792;47.740;7.606;2022-12-10T02:39:00;1.80;99.90
7502;DHT22;3792;47.740;7.606;2022-12-10T02:41:30;1.80;99.90
7502;DHT22;3792;47.740;7.606;2022-12-10T02:44:01;1.80;99.90
7502;DHT22;3792;47.740;7.606;2022-12-10T02:46:32;1.80;99.90
7502;DHT22;3792;47.740;7.606;2022-12-10T02:49:02;1.80;99.90
7502;DHT22;3792;47.740;7.606;2022-12-10T02:51:30;1.80;99.90
7502;DHT22;3792;47.740;7.606;2022-12-10T02:54:01;1.80;99.90
7502;DHT22;3792;47.740;7.606;2022-12-10T02:56:33;1.80;99.90
7502;DHT22;3792;47.740;7.606;2022-12-10T02:59:08;1.80;99.90
7502;DHT22;3792;47.740;7.606;2022-12-10T03:01:44;1.80;99.90
7502;DHT22;3792;47.740;7.606;2022-12-10T03:04:20;1.90;99.90
7502;DHT22;3792;47.740;7.606;2022-12-10T03:06:52;1.90;99.90
7502;DHT22;3792;47.740;7.606;2022-12-10T03:09:22;1.90;99.90
7502;DHT22;3792;47.740;7.606;2022-12-10T03:11:55;1.90;99.90
7502;DHT22;3792;47.740;7.606;2022-12-10T03:14:27;1.90;99.90
7502;DHT22;3792;47.740;7.606;2022-12-10T03:16:58;1.90;99.90
7502;DHT22;3792;47.740;7.606;2022-12-10T03:19:29;1.90;99.90
7502;DHT22;3792;47.740;7.606;2022-12-10T03:21:58;1.80;99.90
7502;DHT22;3792;47.740;7.606;2022-12-10T03:24:27;1.80;99.90
7502;DHT22;3792;47.740;7.606;2022-12-10T03:26:55;1.80;99.90
7502;DHT22;3792;47.740;7.606;2022-12-10T03:29:27;1.90;99.90
7502;DHT22;3792;47.740;7.606;2022-12-10T03:31:58;1.90;99.90
7502;DHT22;3792;47.740;7.606;2022-12-10T03:34:26;1.90;99.90
7502;DHT22;3792;47.740;7.606;2022-12-10T03:36:54;1.80;99.90
7502;DHT22;3792;47.740;7.606;2022-12-10T03:39:22;1.80;99.90
7502;DHT22;3792;47.740;7.606;2022-12-10T03:41:49;1.80;99.90
7502;DHT22;3792;47.740;7.606;2022-12-10T03:44:27;1.80;99.90
7502;DHT22;3792;47.740;7.606;2022-12-10T03:46:54;1.80;99.90
7502;DHT22;3792;47.740;7.606;2022-12-10T03:49:23;1.80;99.90
7502;DHT22;3792;47.740;7.606;2022-12-10T03:51:50;1.80;99.90
7502;DHT22;3792;47.740;7.606;2022-12-10T03:54:17;1.80;99.90
7502;DHT22;3792;47.740;7.606;2022-12-10T03:56:44;1.80;99.90
7502;DHT22;3792;47.740;7.606;2022-12-10T03:59:12;1.80;99.90
7502;DHT22;3792;47.740;7.606;2022-12-10T04:01:40;1.70;99.90
7502;DHT22;3792;47.740;7.606;2022-12-10T04:04:07;1.70;99.90
7502;DHT22;3792;47.740;7.606;2022-12-10T04:06:37;1.70;99.90
7502;DHT22;3792;47.740;7.606;2022-12-10T04:09:05;1.60;99.90
7502;DHT22;3792;47.740;7.606;2022-12-10T04:11:32;1.50;99.90
7502;DHT22;3792;47.740;7.606;2022-12-10T04:13:59;1.50;99.90
7502;DHT22;3792;47.740;7.606;2022-12-10T04:16:43;1.40;99.90
7502;DHT22;3792;47.740;7.606;2022-12-10T04:19:13;1.40;99.90
7502;DHT22;3792;47.740;7.606;2022-12-10T04:21:42;1.40;99.90
7502;DHT22;3792;47.740;7.606;2022-12-10T04:24:28;1.40;99.90
7502;DHT22;3792;47.740;7.606;2022-12-10T04:27:16;1.40;99.90
7502;DHT22;3792;47.740;7.606;2022-12-10T04:29:44;1.30;99.90
7502;DHT22;3792;47.740;7.606;2022-12-10T04:32:12;1.40;99.90
7502;DHT22;3792;47.740;7.606;2022-12-10T04:34:39;1.40;99.90
7502;DHT22;3792;47.740;7.606;2022-12-10T04:37:07;1.40;99.90
7502;DHT22;3792;47.740;7.606;2022-12-10T04:39:36;1.40;99.90
7502;DHT22;3792;47.740;7.606;2022-12-10T04:42:04;1.40;99.90
7502;DHT22;3792;47.740;7.606;2022-12-10T04:44:31;1.40;99.90
7502;DHT22;3792;47.740;7.606;2022-12-10T04:46:58;1.40;99.90
7502;DHT22;3792;47.740;7.606;2022-12-10T04:49:26;1.30;99.90
7502;DHT22;3792;47.740;7.606;2022-12-10T04:51:53;1.30;99.90
7502;DHT22;3792;47.740;7.606;2022-12-10T04:54:23;1.30;99.90
7502;DHT22;3792;47.740;7.606;2022-12-10T04:56:50;1.30;99.90
7502;DHT22;3792;47.740;7.606;2022-12-10T04:59:17;1.30;99.90
7502;DHT22;3792;47.740;7.606;2022-12-10T05:01:44;1.30;99.90
7502;DHT22;3792;47.740;7.606;2022-12-10T05:04:13;1.30;99.90
7502;DHT22;3792;47.740;7.606;2022-12-10T05:06:41;1.30;99.90
7502;DHT22;3792;47.740;7.606;2022-12-10T05:09:09;1.20;99.90
7502;DHT22;3792;47.740;7.606;2022-12-10T05:11:38;1.20;99.90
7502;DHT22;3792;47.740;7.606;2022-12-10T05:14:06;1.20;99.90
7502;DHT22;3792;47.740;7.606;2022-12-10T05:16:33;1.20;99.90
7502;DHT22;3792;47.740;7.606;2022-12-10T05:19:00;1.30;99.90
7502;DHT22;3792;47.740;7.606;2022-12-10T05:21:29;1.30;99.90
7502;DHT22;3792;47.740;7.606;2022-12-10T05:24:18;1.30;99.90
7502;DHT22;3792;47.740;7.606;2022-12-10T05:26:46;1.30;99.90
7502;DHT22;3792;47.740;7.606;2022-12-10T05:29:16;1.40;99.90
7502;DHT22;3792;47.740;7.606;2022-12-10T05:31:44;1.40;99.90
7502;DHT22;3792;47.740;7.606;2022-12-10T05:34:11;1.40;99.90
7502;DHT22;3792;47.740;7.606;2022-12-10T05:36:38;1.40;99.90
7502;DHT22;3792;47.740;7.606;2022-12-10T05:39:06;1.40;99.90
7502;DHT22;3792;47.740;7.606;2022-12-10T05:41:35;1.40;99.90
7502;DHT22;3792;47.740;7.606;2022-12-10T05:44:04;1.40;99.90
7502;DHT22;3792;47.740;7.606;2022-12-10T05:46:32;1.40;99.90
7502;DHT22;3792;47.740;7.606;2022-12-10T05:49:00;1.40;99.90
7502;DHT22;3792;47.740;7.606;2022-12-10T05:51:30;1.40;99.90
7502;DHT22;3792;47.740;7.606;2022-12-10T05:53:59;1.40;99.90
7502;DHT22;3792;47.740;7.606;2022-12-10T05:56:27;1.40;99.90
7502;DHT22;3792;47.740;7.606;2022-12-10T05:58:57;1.40;99.90
7502;DHT22;3792;47.740;7.606;2022-12-10T06:01:27;1.50;99.90
7502;DHT22;3792;47.740;7.606;2022-12-10T06:03:56;1.50;99.90
7502;DHT22;3792;47.740;7.606;2022-12-10T06:06:24;1.50;99.90
7502;DHT22;3792;47.740;7.606;2022-12-10T06:08:52;1.60;99.90
7502;DHT22;3792;47.740;7.606;2022-12-10T06:11:19;1.60;99.90
7502;DHT22;3792;47.740;7.606;2022-12-10T06:13:47;1.50;99.90
7502;DHT22;3792;47.740;7.606;2022-12-10T06:16:15;1.50;99.90
7502;DHT22;3792;47.740;7.606;2022-12-10T06:18:43;1.40;99.90
7502;DHT22;3792;47.740;7.606;2022-12-10T06:21:13;1.50;99.90
7502;DHT22;3792;47.740;7.606;2022-12-10T06:23:41;1.50;99.90
7502;DHT22;3792;47.740;7.606;2022-12-10T06:26:10;1.50;99.90
7502;DHT22;3792;47.740;7.606;2022-12-10T06:28:38;1.50;99.90
7502;DHT22;3792;47.740;7.606;2022-12-10T06:31:06;1.50;99.90
7502;DHT22;3792;47.740;7.606;2022-12-10T06:33:33;1.50;99.90
7502;DHT22;3792;47.740;7.606;2022-12-10T06:36:03;1.50;99.90
7502;DHT22;3792;47.740;7.606;2022-12-10T06:38:30;1.40;99.90
7502;DHT22;3792;47.740;7.606;2022-12-10T06:40:57;1.40;99.90
7502;DHT22;3792;47.740;7.606;2022-12-10T06:43:27;1.40;99.90
7502;DHT22;3792;47.740;7.606;2022-12-10T06:45:55;1.40;99.90
7502;DHT22;3792;47.740;7.606;2022-12-10T06:48:22;1.40;99.90
7502;DHT22;3792;47.740;7.606;2022-12-10T06:50:49;1.40;99.90
7502;DHT22;3792;47.740;7.606;2022-12-10T06:53:18;1.40;99.90
7502;DHT22;3792;47.740;7.606;2022-12-10T06:55:45;1.40;99.90
7502;DHT22;3792;47.740;7.606;2022-12-10T06:58:12;1.40;99.90
7502;DHT22;3792;47.740;7.606;2022-12-10T07:00:39;1.40;99.90
7502;DHT22;3792;47.740;7.606;2022-12-10T07:03:06;1.40;99.90
7502;DHT22;3792;47.740;7.606;2022-12-10T07:05:34;1.40;99.90
7502;DHT22;3792;47.740;7.606;2022-12-10T07:08:01;1.40;99.90
7502;DHT22;3792;47.740;7.606;2022-12-10T07:10:29;1.40;99.90
7502;DHT22;3792;47.740;7.606;2022-12-10T07:12:56;1.40;99.90
7502;DHT22;3792;47.740;7.606;2022-12-10T07:15:23;1.40;99.90
7502;DHT22;3792;47.740;7.606;2022-12-10T07:17:52;1.40;99.90
7502;DHT22;3792;47.740;7.606;2022-12-10T07:20:20;1.40;99.90
7502;DHT22;3792;47.740;7.606;2022-12-10T07:22:47;1.50;99.90
7502;DHT22;3792;47.740;7.606;2022-12-10T07:25:14;1.50;99.90
7502;DHT22;3792;47.740;7.606;2022-12-10T07:27:42;1.50;99.90
7502;DHT22;3792;47.740;7.606;2022-12-10T07:30:10;1.40;99.90
7502;DHT22;3792;47.740;7.606;2022-12-10T07:32:38;1.50;99.90
7502;DHT22;3792;47.740;7.606;2022-12-10T07:35:05;1.80;99.90
7502;DHT22;3792;47.740;7.606;2022-12-10T07:37:33;2.80;99.90
7502;DHT22;3792;47.740;7.606;2022-12-10T07:40:00;3.80;99.90
7502;DHT22;3792;47.740;7.606;2022-12-10T07:42:28;3.60;99.90
7502;DHT22;3792;47.740;7.606;2022-12-10T07:44:56;3.20;99.90
7502;DHT22;3792;47.740;7.606;2022-12-10T07:47:24;2.80;99.90
7502;DHT22;3792;47.740;7.606;2022-12-10T07:49:51;2.50;99.90
7502;DHT22;3792;47.740;7.606;2022-12-10T07:52:18;2.30;99.90
7502;DHT22;3792;47.740;7.606;2022-12-10T07:54:45;2.00;99.90
7502;DHT22;3792;47.740;7.606;2022-12-10T07:57:12;1.90;99.90
7502;DHT22;3792;47.740;7.606;2022-12-10T07:59:41;1.80;99.90
7502;DHT22;3792;47.740;7.606;2022-12-10T08:02:09;1.80;99.90
7502;DHT22;3792;47.740;7.606;2022-12-10T08:04:38;1.70;99.90
7502;DHT22;3792;47.740;7.606;2022-12-10T08:07:05;1.70;99.90
7502;DHT22;3792;47.740;7.606;2022-12-10T08:09:33;1.60;99.90
7502;DHT22;3792;47.740;7.606;2022-12-10T08:12:00;1.60;99.90
7502;DHT22;3792;47.740;7.606;2022-12-10T08:14:27;1.50;99.90
7502;DHT22;3792;47.740;7.606;2022-12-10T08:16:54;1.60;99.90
7502;DHT22;3792;47.740;7.606;2022-12-10T08:19:23;1.50;99.90
7502;DHT22;3792;47.740;7.606;2022-12-10T08:21:50;1.50;99.90
7502;DHT22;3792;47.740;7.606;2022-12-10T08:24:17;1.50;99.90
7502;DHT22;3792;47.740;7.606;2022-12-10T08:26:44;1.60;99.90
7502;DHT22;3792;47.740;7.606;2022-12-10T08:29:11;1.60;99.90
7502;DHT22;3792;47.740;7.606;2022-12-10T08:31:38;1.60;99.90
7502;DHT22;3792;47.740;7.606;2022-12-10T08:34:12;1.60;99.90
7502;DHT22;3792;47.740;7.606;2022-12-10T08:36:40;1.60;99.90
7502;DHT22;3792;47.740;7.606;2022-12-10T08:39:08;1.60;99.90
7502;DHT22;3792;47.740;7.606;2022-12-10T08:41:36;1.60;99.90
7502;DHT22;3792;47.740;7.606;2022-12-10T08:44:03;1.70;99.90
7502;DHT22;3792;47.740;7.606;2022-12-10T08:46:30;1.60;99.90
7502;DHT22;3792;47.740;7.606;2022-12-10T08:48:57;1.60;99.90
7502;DHT22;3792;47.740;7.606;2022-12-10T08:51:25;1.60;99.90
7502;DHT22;3792;47.740;7.606;2022-12-10T08:53:55;1.70;99.90
7502;DHT22;3792;47.740;7.606;2022-12-10T08:56:22;1.70;99.90
7502;DHT22;3792;47.740;7.606;2022-12-10T08:58:49;1.70;99.90
7502;DHT22;3792;47.740;7.606;2022-12-10T09:01:17;1.70;99.90
7502;DHT22;3792;47.740;7.606;2022-12-10T09:03:44;1.70;99.90
7502;DHT22;3792;47.740;7.606;2022-12-10T09:06:13;1.80;99.90
7502;DHT22;3792;47.740;7.606;2022-12-10T09:08:41;1.70;99.90
7502;DHT22;3792;47.740;7.606;2022-12-10T09:11:11;1.70;99.90
7502;DHT22;3792;47.740;7.606;2022-12-10T09:13:39;1.70;99.90
7502;DHT22;3792;47.740;7.606;2022-12-10T09:16:06;1.70;99.90
7502;DHT22;3792;47.740;7.606;2022-12-10T09:18:33;1.70;99.90
7502;DHT22;3792;47.740;7.606;2022-12-10T09:21:05;1.70;99.90
7502;DHT22;3792;47.740;7.606;2022-12-10T09:23:32;1.80;99.90
7502;DHT22;3792;47.740;7.606;2022-12-10T09:25:59;1.80;99.90
7502;DHT22;3792;47.740;7.606;2022-12-10T09:28:28;1.90;99.90
7502;DHT22;3792;47.740;7.606;2022-12-10T09:30:55;1.90;99.90
7502;DHT22;3792;47.740;7.606;2022-12-10T09:33:23;2.00;99.90
7502;DHT22;3792;47.740;7.606;2022-12-10T09:35:50;1.90;99.90
7502;DHT22;3792;47.740;7.606;2022-12-10T09:38:17;1.80;99.90
7502;DHT22;3792;47.740;7.606;2022-12-10T09:40:48;1.90;99.90
7502;DHT22;3792;47.740;7.606;2022-12-10T09:43:23;1.90;99.90
7502;DHT22;3792;47.740;7.606;2022-12-10T09:46:02;1.80;99.90
7502;DHT22;3792;47.740;7.606;2022-12-10T09:48:41;1.80;99.90
7502;DHT22;3792;47.740;7.606;2022-12-10T09:51:21;1.90;99.90
7502;DHT22;3792;47.740;7.606;2022-12-10T09:53:50;1.90;99.90
7502;DHT22;3792;47.740;7.606;2022-12-10T09:56:26;1.80;99.90
7502;DHT22;3792;47.740;7.606;2022-12-10T09:58:56;1.70;99.90
7502;DHT22;3792;47.740;7.606;2022-12-10T10:01:30;1.70;99.90
7502;DHT22;3792;47.740;7.606;2022-12-10T10:03:58;1.70;99.90
7502;DHT22;3792;47.740;7.606;2022-12-10T10:06:26;1.60;99.90
7502;DHT22;3792;47.740;7.606;2022-12-10T10:08:56;1.60;99.90
7502;DHT22;3792;47.740;7.606;2022-12-10T10:11:28;1.60;99.90
7502;DHT22;3792;47.740;7.606;2022-12-10T10:13:58;1.50;99.90
7502;DHT22;3792;47.740;7.606;2022-12-10T10:16:32;1.50;99.90
7502;DHT22;3792;47.740;7.606;2022-12-10T10:19:03;1.60;99.90
7502;DHT22;3792;47.740;7.606;2022-12-10T10:21:34;1.60;99.90
7502;DHT22;3792;47.740;7.606;2022-12-10T10:24:03;1.70;99.90
7502;DHT22;3792;47.740;7.606;2022-12-10T10:26:31;1.70;99.90
7502;DHT22;3792;47.740;7.606;2022-12-10T10:29:00;1.70;99.90
7502;DHT22;3792;47.740;7.606;2022-12-10T10:31:31;1.70;99.90
7502;DHT22;3792;47.740;7.606;2022-12-10T10:34:01;1.80;99.90
7502;DHT22;3792;47.740;7.606;2022-12-10T10:36:31;1.80;99.90
7502;DHT22;3792;47.740;7.606;2022-12-10T10:39:08;1.90;99.90
7502;DHT22;3792;47.740;7.606;2022-12-10T10:41:38;1.90;99.90
7502;DHT22;3792;47.740;7.606;2022-12-10T10:44:13;1.90;99.90
7502;DHT22;3792;47.740;7.606;2022-12-10T10:46:43;1.90;99.90
7502;DHT22;3792;47.740;7.606;2022-12-10T10:49:21;1.90;99.90
7502;DHT22;3792;47.740;7.606;2022-12-10T10:51:48;1.90;99.90
7502;DHT22;3792;47.740;7.606;2022-12-10T10:54:32;1.90;99.90
7502;DHT22;3792;47.740;7.606;2022-12-10T10:57:02;1.80;99.90
7502;DHT22;3792;47.740;7.606;2022-12-10T10:59:32;1.90;99.90
7502;DHT22;3792;47.740;7.606;2022-12-10T11:02:05;1.90;99.90
7502;DHT22;3792;47.740;7.606;2022-12-10T11:04:46;2.00;99.90
7502;DHT22;3792;47.740;7.606;2022-12-10T11:07:23;1.90;99.90
7502;DHT22;3792;47.740;7.606;2022-12-10T11:09:53;1.90;99.90
7502;DHT22;3792;47.740;7.606;2022-12-10T11:12:28;1.90;99.90
7502;DHT22;3792;47.740;7.606;2022-12-10T11:14:55;1.90;99.90
7502;DHT22;3792;47.740;7.606;2022-12-10T11:17:26;1.80;99.90
7502;DHT22;3792;47.740;7.606;2022-12-10T11:19:56;1.80;99.90
7502;DHT22;3792;47.740;7.606;2022-12-10T11:22:28;1.80;99.90
7502;DHT22;3792;47.740;7.606;2022-12-10T11:24:56;1.90;99.90
7502;DHT22;3792;47.740;7.606;2022-12-10T11:27:38;1.90;99.90
7502;DHT22;3792;47.740;7.606;2022-12-10T11:30:12;1.80;99.90
7502;DHT22;3792;47.740;7.606;2022-12-10T11:32:56;1.80;99.90
7502;DHT22;3792;47.740;7.606;2022-12-10T11:35:36;1.80;99.90
7502;DHT22;3792;47.740;7.606;2022-12-10T11:38:14;1.90;99.90
7502;DHT22;3792;47.740;7.606;2022-12-10T11:40:48;2.00;99.90
7502;DHT22;3792;47.740;7.606;2022-12-10T11:43:26;2.00;99.90
7502;DHT22;3792;47.740;7.606;2022-12-10T11:46:05;2.20;99.90
7502;DHT22;3792;47.740;7.606;2022-12-10T11:48:55;2.50;99.90
7502;DHT22;3792;47.740;7.606;2022-12-10T11:51:28;2.70;99.90
7502;DHT22;3792;47.740;7.606;2022-12-10T11:54:26;3.00;99.90
7502;DHT22;3792;47.740;7.606;2022-12-10T11:57:01;2.90;99.90
7502;DHT22;3792;47.740;7.606;2022-12-10T11:59:34;2.70;99.90
7502;DHT22;3792;47.740;7.606;2022-12-10T12:02:20;2.70;99.90
7502;DHT22;3792;47.740;7.606;2022-12-10T12:05:07;2.80;99.90
7502;DHT22;3792;47.740;7.606;2022-12-10T12:07:41;3.00;99.90
7502;DHT22;3792;47.740;7.606;2022-12-10T12:13:24;2.80;99.90
7502;DHT22;3792;47.740;7.606;2022-12-10T12:15:57;2.70;99.90
7502;DHT22;3792;47.740;7.606;2022-12-10T12:18:33;2.60;99.90
7502;DHT22;3792;47.740;7.606;2022-12-10T12:21:08;2.60;99.90
7502;DHT22;3792;47.740;7.606;2022-12-10T12:23:43;2.60;99.90
7502;DHT22;3792;47.740;7.606;2022-12-10T12:26:16;2.60;99.90
7502;DHT22;3792;47.740;7.606;2022-12-10T12:28:47;2.60;99.90
7502;DHT22;3792;47.740;7.606;2022-12-10T12:31:20;2.60;99.90
7502;DHT22;3792;47.740;7.606;2022-12-10T12:33:51;2.50;99.90
7502;DHT22;3792;47.740;7.606;2022-12-10T12:36:22;2.50;99.90
7502;DHT22;3792;47.740;7.606;2022-12-10T12:38:55;2.50;99.90
7502;DHT22;3792;47.740;7.606;2022-12-10T12:41:32;2.50;99.90
7502;DHT22;3792;47.740;7.606;2022-12-10T12:44:07;2.40;99.90
7502;DHT22;3792;47.740;7.606;2022-12-10T12:46:40;2.40;99.90
7502;DHT22;3792;47.740;7.606;2022-12-10T12:49:16;2.40;99.90
7502;DHT22;3792;47.740;7.606;2022-12-10T12:51:52;2.40;99.90
7502;DHT22;3792;47.740;7.606;2022-12-10T12:54:20;2.40;99.90
7502;DHT22;3792;47.740;7.606;2022-12-10T12:56:59;2.40;99.90
7502;DHT22;3792;47.740;7.606;2022-12-10T12:59:41;2.40;99.90
7502;DHT22;3792;47.740;7.606;2022-12-10T13:02:21;2.30;99.90
7502;DHT22;3792;47.740;7.606;2022-12-10T13:04:50;2.30;99.90
7502;DHT22;3792;47.740;7.606;2022-12-10T13:07:31;2.30;99.90
7502;DHT22;3792;47.740;7.606;2022-12-10T13:10:25;2.20;99.90
7502;DHT22;3792;47.740;7.606;2022-12-10T13:13:15;2.20;99.90
7502;DHT22;3792;47.740;7.606;2022-12-10T13:15:43;2.20;99.90
7502;DHT22;3792;47.740;7.606;2022-12-10T13:18:35;2.30;99.90
7502;DHT22;3792;47.740;7.606;2022-12-10T13:21:29;2.20;99.90
7502;DHT22;3792;47.740;7.606;2022-12-10T13:24:09;2.40;99.90
7502;DHT22;3792;47.740;7.606;2022-12-10T13:26:40;2.50;99.90
7502;DHT22;3792;47.740;7.606;2022-12-10T13:29:26;2.50;99.90
7502;DHT22;3792;47.740;7.606;2022-12-10T13:32:02;2.50;99.90
7502;DHT22;3792;47.740;7.606;2022-12-10T13:34:32;2.50;99.90
7502;DHT22;3792;47.740;7.606;2022-12-10T13:37:14;2.50;99.90
7502;DHT22;3792;47.740;7.606;2022-12-10T13:40:01;2.50;99.90
7502;DHT22;3792;47.740;7.606;2022-12-10T13:42:31;2.50;99.90
7502;DHT22;3792;47.740;7.606;2022-12-10T13:45:34;2.50;99.90
7502;DHT22;3792;47.740;7.606;2022-12-10T13:48:32;2.60;99.90
7502;DHT22;3792;47.740;7.606;2022-12-10T13:57:07;2.60;99.90
7502;DHT22;3792;47.740;7.606;2022-12-10T13:59:43;2.50;99.90
7502;DHT22;3792;47.740;7.606;2022-12-10T14:02:36;2.50;99.90
7502;DHT22;3792;47.740;7.606;2022-12-10T14:05:22;2.30;99.90
7502;DHT22;3792;47.740;7.606;2022-12-10T14:07:54;2.40;99.90
7502;DHT22;3792;47.740;7.606;2022-12-10T14:10:29;2.40;99.90
7502;DHT22;3792;47.740;7.606;2022-12-10T14:13:05;2.50;99.90
7502;DHT22;3792;47.740;7.606;2022-12-10T14:15:35;2.50;99.90
7502;DHT22;3792;47.740;7.606;2022-12-10T14:18:11;2.50;99.90
7502;DHT22;3792;47.740;7.606;2022-12-10T14:20:42;2.50;99.90
7502;DHT22;3792;47.740;7.606;2022-12-10T14:23:23;2.50;99.90
7502;DHT22;3792;47.740;7.606;2022-12-10T14:26:11;2.50;99.90
7502;DHT22;3792;47.740;7.606;2022-12-10T14:28:41;2.50;99.90
7502;DHT22;3792;47.740;7.606;2022-12-10T14:31:15;2.50;99.90
7502;DHT22;3792;47.740;7.606;2022-12-10T14:33:44;2.50;99.90
7502;DHT22;3792;47.740;7.606;2022-12-10T14:36:17;2.60;99.90
7502;DHT22;3792;47.740;7.606;2022-12-10T14:38:47;2.50;99.90
7502;DHT22;3792;47.740;7.606;2022-12-10T14:41:18;2.50;99.90
7502;DHT22;3792;47.740;7.606;2022-12-10T14:43:49;2.40;99.90
7502;DHT22;3792;47.740;7.606;2022-12-10T14:46:22;2.40;99.90
7502;DHT22;3792;47.740;7.606;2022-12-10T14:48:50;2.40;99.90
7502;DHT22;3792;47.740;7.606;2022-12-10T14:51:20;2.30;99.90
7502;DHT22;3792;47.740;7.606;2022-12-10T14:53:48;2.30;99.90
7502;DHT22;3792;47.740;7.606;2022-12-10T14:56:23;2.30;99.90
7502;DHT22;3792;47.740;7.606;2022-12-10T14:58:56;2.30;99.90
7502;DHT22;3792;47.740;7.606;2022-12-10T15:01:28;2.30;99.90
7502;DHT22;3792;47.740;7.606;2022-12-10T15:03:59;2.30;99.90
7502;DHT22;3792;47.740;7.606;2022-12-10T15:06:27;2.30;99.90
7502;DHT22;3792;47.740;7.606;2022-12-10T15:08:56;2.30;99.90
7502;DHT22;3792;47.740;7.606;2022-12-10T15:11:26;2.30;99.90
7502;DHT22;3792;47.740;7.606;2022-12-10T15:13:58;2.30;99.90
7502;DHT22;3792;47.740;7.606;2022-12-10T15:16:38;2.20;99.90
7502;DHT22;3792;47.740;7.606;2022-12-10T15:19:16;2.20;99.90
7502;DHT22;3792;47.740;7.606;2022-12-10T15:21:45;2.20;99.90
7502;DHT22;3792;47.740;7.606;2022-12-10T15:24:19;2.20;99.90
7502;DHT22;3792;47.740;7.606;2022-12-10T15:26:49;2.10;99.90
7502;DHT22;3792;47.740;7.606;2022-12-10T15:29:34;2.20;99.90
7502;DHT22;3792;47.740;7.606;2022-12-10T15:32:05;2.20;99.90
7502;DHT22;3792;47.740;7.606;2022-12-10T15:34:39;2.20;99.90
7502;DHT22;3792;47.740;7.606;2022-12-10T15:37:16;2.10;99.90
7502;DHT22;3792;47.740;7.606;2022-12-10T15:39:47;2.10;99.90
7502;DHT22;3792;47.740;7.606;2022-12-10T15:42:29;2.00;99.90
7502;DHT22;3792;47.740;7.606;2022-12-10T15:45:02;2.00;99.90
7502;DHT22;3792;47.740;7.606;2022-12-10T15:47:32;2.00;99.90
7502;DHT22;3792;47.740;7.606;2022-12-10T15:50:04;2.00;99.90
7502;DHT22;3792;47.740;7.606;2022-12-10T15:52:31;1.90;99.90
7502;DHT22;3792;47.740;7.606;2022-12-10T15:54:58;2.00;99.90
7502;DHT22;3792;47.740;7.606;2022-12-10T15:57:28;1.90;99.90
7502;DHT22;3792;47.740;7.606;2022-12-10T15:59:58;1.90;99.90
7502;DHT22;3792;47.740;7.606;2022-12-10T16:02:35;1.90;99.90
7502;DHT22;3792;47.740;7.606;2022-12-10T16:05:03;2.00;99.90
7502;DHT22;3792;47.740;7.606;2022-12-10T16:07:36;1.90;99.90
7502;DHT22;3792;47.740;7.606;2022-12-10T16:10:04;1.80;99.90
7502;DHT22;3792;47.740;7.606;2022-12-10T16:12:34;1.70;99.90
7502;DHT22;3792;47.740;7.606;2022-12-10T16:15:04;1.70;99.90
7502;DHT22;3792;47.740;7.606;2022-12-10T16:17:32;1.80;99.90
7502;DHT22;3792;47.740;7.606;2022-12-10T16:20:00;1.70;99.90
7502;DHT22;3792;47.740;7.606;2022-12-10T16:22:37;1.70;99.90
7502;DHT22;3792;47.740;7.606;2022-12-10T16:25:04;1.60;99.90
7502;DHT22;3792;47.740;7.606;2022-12-10T16:27:32;1.50;99.90
7502;DHT22;3792;47.740;7.606;2022-12-10T16:30:12;1.50;99.90
7502;DHT22;3792;47.740;7.606;2022-12-10T16:32:39;1.50;99.90
7502;DHT22;3792;47.740;7.606;2022-12-10T16:35:06;1.50;99.90
7502;DHT22;3792;47.740;7.606;2022-12-10T16:37:35;1.50;99.90
7502;DHT22;3792;47.740;7.606;2022-12-10T16:40:02;1.50;99.90
7502;DHT22;3792;47.740;7.606;2022-12-10T16:42:29;1.50;99.90
7502;DHT22;3792;47.740;7.606;2022-12-10T16:44:56;1.40;99.90
7502;DHT22;3792;47.740;7.606;2022-12-10T16:47:25;1.50;99.90
7502;DHT22;3792;47.740;7.606;2022-12-10T16:49:52;1.50;99.90
7502;DHT22;3792;47.740;7.606;2022-12-10T16:52:19;1.60;99.90